createdAt,value
2018-04-02T00:00:12.142Z,91.30
2018-04-02T00:02:38.964Z,91.30
2018-04-02T00:05:05.508Z,91.40
2018-04-02T00:07:31.959Z,91.40
2018-04-02T00:09:58.541Z,91.40
2018-04-02T00:12:25.733Z,91.40
2018-04-02T00:14:52.414Z,91.40
2018-04-02T00:17:19.106Z,91.40
2018-04-02T00:19:46.258Z,91.90
2018-04-02T00:22:12.633Z,91.50
2018-04-02T00:24:39.174Z,91.50
2018-04-02T00:27:05.630Z,91.40
2018-04-02T00:29:32.825Z,91.40
2018-04-02T00:31:59.386Z,91.40
2018-04-02T00:34:25.836Z,91.30
2018-04-02T00:36:52.265Z,91.40
2018-04-02T00:39:19.398Z,91.40
2018-04-02T00:41:46.017Z,91.50
2018-04-02T00:44:12.485Z,91.60
2018-04-02T00:46:39.007Z,91.50
2018-04-02T00:49:05.449Z,91.50
2018-04-02T00:51:31.919Z,91.50
2018-04-02T00:53:58.486Z,91.50
2018-04-02T00:56:24.981Z,91.60
2018-04-02T00:58:51.473Z,91.50
2018-04-02T01:01:18.111Z,91.50
2018-04-02T01:03:44.954Z,91.50
2018-04-02T01:06:11.441Z,91.40
2018-04-02T01:08:38.059Z,91.50
2018-04-02T01:11:05.269Z,91.60
2018-04-02T01:13:31.814Z,91.60
2018-04-02T01:15:59.202Z,91.40
2018-04-02T01:18:26.506Z,91.40
2018-04-02T01:20:52.932Z,91.40
2018-04-02T01:23:19.706Z,91.40
2018-04-02T01:25:46.732Z,91.30
2018-04-02T01:28:13.180Z,91.40
2018-04-02T01:30:47.014Z,91.40
2018-04-02T01:33:14.311Z,91.40
2018-04-02T01:35:40.812Z,91.40
2018-04-02T01:38:08.198Z,91.40
2018-04-02T01:40:34.743Z,91.40
2018-04-02T01:43:01.349Z,91.20
2018-04-02T01:45:27.954Z,91.20
2018-04-02T01:47:54.421Z,91.20
2018-04-02T01:50:20.886Z,91.20
2018-04-02T01:52:47.688Z,91.20
2018-04-02T01:55:14.895Z,91.00
2018-04-02T01:57:41.568Z,90.90
2018-04-02T02:00:08.287Z,90.90
2018-04-02T02:02:34.854Z,91.00
2018-04-02T02:05:02.074Z,91.20
2018-04-02T02:07:28.750Z,91.20
2018-04-02T02:09:55.944Z,91.20
2018-04-02T02:12:22.444Z,91.20
2018-04-02T02:14:49.769Z,91.20
2018-04-02T02:17:16.372Z,91.20
2018-04-02T02:19:42.825Z,91.10
2018-04-02T02:22:09.589Z,91.10
2018-04-02T02:24:36.097Z,91.20
2018-04-02T02:27:02.561Z,91.20
2018-04-02T02:29:29.534Z,91.20
2018-04-02T02:31:56.196Z,91.20
2018-04-02T02:34:22.632Z,91.30
2018-04-02T02:36:49.191Z,91.30
2018-04-02T02:39:15.764Z,91.30
2018-04-02T02:41:42.234Z,91.40
2018-04-02T02:44:08.708Z,91.40
2018-04-02T02:46:35.287Z,91.40
2018-04-02T02:49:02.461Z,91.80
2018-04-02T02:51:28.974Z,91.40
2018-04-02T02:53:55.608Z,91.50
2018-04-02T02:56:22.049Z,91.40
2018-04-02T02:58:49.252Z,91.40
2018-04-02T03:01:15.669Z,91.40
2018-04-02T03:03:42.264Z,91.40
2018-04-02T03:06:09.107Z,91.40
2018-04-02T03:08:35.642Z,91.50
2018-04-02T03:11:02.194Z,91.50
2018-04-02T03:13:28.723Z,91.60
2018-04-02T03:15:55.861Z,91.60
2018-04-02T03:18:22.499Z,91.60
2018-04-02T03:20:49.734Z,91.90
2018-04-02T03:23:16.169Z,91.90
2018-04-02T03:25:42.617Z,91.80
2018-04-02T03:28:10.890Z,91.80
2018-04-02T03:30:38.066Z,91.80
2018-04-02T03:33:04.566Z,91.70
2018-04-02T03:35:31.834Z,91.90
2018-04-02T03:37:59.110Z,92.30
2018-04-02T03:40:25.556Z,91.90
2018-04-02T03:42:52.788Z,92.00
2018-04-02T03:45:19.973Z,92.30
2018-04-02T03:47:46.388Z,92.20
2018-04-02T03:50:13.202Z,92.20
2018-04-02T03:52:39.605Z,92.10
2018-04-02T03:55:06.105Z,92.10
2018-04-02T03:57:32.580Z,92.30
2018-04-02T03:59:59.723Z,92.50
2018-04-02T04:02:26.264Z,92.50
2018-04-02T04:04:53.504Z,92.30
2018-04-02T04:07:20.023Z,92.30
2018-04-02T04:09:46.761Z,92.30
2018-04-02T04:12:13.382Z,92.40
2018-04-02T04:14:39.796Z,92.40
2018-04-02T04:17:06.193Z,92.40
2018-04-02T04:19:32.857Z,92.30
2018-04-02T04:22:00.085Z,92.50
2018-04-02T04:24:26.618Z,92.50
2018-04-02T04:26:53.132Z,92.40
2018-04-02T04:29:20.635Z,92.40
2018-04-02T04:31:47.041Z,92.40
2018-04-02T04:34:13.641Z,92.40
2018-04-02T04:36:40.118Z,92.60
2018-04-02T04:39:06.639Z,92.30
2018-04-02T04:41:33.213Z,92.30
2018-04-02T04:44:00.618Z,92.20
2018-04-02T04:46:27.120Z,92.20
2018-04-02T04:48:55.726Z,92.10
2018-04-02T04:51:22.221Z,92.10
2018-04-02T04:53:49.436Z,92.10
2018-04-02T04:56:23.156Z,92.10
2018-04-02T04:58:49.754Z,92.10
2018-04-02T05:01:16.257Z,92.20
2018-04-02T05:03:43.185Z,92.10
2018-04-02T05:06:09.683Z,92.00
2018-04-02T05:08:36.136Z,92.00
2018-04-02T05:11:02.994Z,91.90
2018-04-02T05:13:29.480Z,91.90
2018-04-02T05:15:56.032Z,91.80
2018-04-02T05:18:22.637Z,91.60
2018-04-02T05:20:49.949Z,91.90
2018-04-02T05:23:17.147Z,91.80
2018-04-02T05:25:44.310Z,92.20
2018-04-02T05:28:10.809Z,91.70
2018-04-02T05:30:38.245Z,91.70
2018-04-02T05:33:04.866Z,91.70
2018-04-02T05:35:32.069Z,91.90
2018-04-02T05:37:58.752Z,91.80
2018-04-02T05:40:25.298Z,91.80
2018-04-02T05:42:51.761Z,91.70
2018-04-02T05:45:18.253Z,91.70
2018-04-02T05:47:44.832Z,91.80
2018-04-02T05:50:11.291Z,91.70
2018-04-02T05:52:37.865Z,91.80
2018-04-02T05:55:04.821Z,91.60
2018-04-02T05:57:31.306Z,91.70
2018-04-02T05:59:58.606Z,91.70
2018-04-02T06:02:25.416Z,91.50
2018-04-02T06:04:52.987Z,91.40
2018-04-02T06:07:19.555Z,91.40
2018-04-02T06:09:46.140Z,91.60
2018-04-02T06:12:12.816Z,91.40
2018-04-02T06:14:39.417Z,91.40
2018-04-02T06:17:07.000Z,91.40
2018-04-02T06:19:33.555Z,91.40
2018-04-02T06:22:00.135Z,91.40
2018-04-02T06:24:26.925Z,91.70
2018-04-02T06:26:53.396Z,91.30
2018-04-02T06:29:20.318Z,91.30
2018-04-02T06:31:47.624Z,91.20
2018-04-02T06:34:14.097Z,91.10
2018-04-02T06:36:40.622Z,91.20
2018-04-02T06:39:07.274Z,91.20
2018-04-02T06:41:33.874Z,91.10
2018-04-02T06:44:01.188Z,91.30
2018-04-02T06:46:27.750Z,91.20
2018-04-02T06:48:54.446Z,91.00
2018-04-02T06:51:21.643Z,91.30
2018-04-02T06:53:48.221Z,91.30
2018-04-02T06:56:15.485Z,91.20
2018-04-02T06:58:42.016Z,91.00
2018-04-02T07:01:08.552Z,91.00
2018-04-02T07:03:35.885Z,91.60
2018-04-02T07:06:03.290Z,91.20
2018-04-02T07:08:29.787Z,91.20
2018-04-02T07:10:56.553Z,91.10
2018-04-02T07:13:23.007Z,91.40
2018-04-02T07:15:50.261Z,91.30
2018-04-02T07:18:17.012Z,91.10
2018-04-02T07:20:44.529Z,91.00
2018-04-02T07:23:11.139Z,90.60
2018-04-02T07:25:38.376Z,89.60
2018-04-02T07:28:05.723Z,89.60
2018-04-02T07:30:32.190Z,89.30
2018-04-02T07:32:58.973Z,88.10
2018-04-02T07:35:25.523Z,87.00
2018-04-02T07:37:52.007Z,86.60
2018-04-02T07:40:18.510Z,86.40
2018-04-02T07:42:45.050Z,86.00
2018-04-02T07:45:12.334Z,85.70
2018-04-02T07:47:38.893Z,85.50
2018-04-02T07:50:05.485Z,85.30
2018-04-02T07:52:32.014Z,85.50
2018-04-02T07:54:58.510Z,85.50
2018-04-02T07:57:24.976Z,86.80
2018-04-02T07:59:51.487Z,86.00
2018-04-02T08:02:18.004Z,85.00
2018-04-02T08:04:44.566Z,84.00
2018-04-02T08:07:11.909Z,83.00
2018-04-02T08:09:38.376Z,82.60
2018-04-02T08:12:04.932Z,82.90
2018-04-02T08:14:31.486Z,82.70
2018-04-02T08:16:58.000Z,81.00
2018-04-02T08:19:24.418Z,80.10
2018-04-02T08:21:50.880Z,81.60
2018-04-02T08:24:17.516Z,81.10
2018-04-02T08:26:45.032Z,81.00
2018-04-02T08:29:11.623Z,81.00
2018-04-02T08:31:38.222Z,81.70
2018-04-02T08:34:05.759Z,80.80
2018-04-02T08:36:33.209Z,80.70
2018-04-02T08:39:00.609Z,80.70
2018-04-02T08:41:27.117Z,80.70
2018-04-02T08:43:53.572Z,81.20
2018-04-02T08:46:20.853Z,80.10
2018-04-02T08:48:48.453Z,78.60
2018-04-02T08:51:14.985Z,78.50
2018-04-02T08:53:41.489Z,78.40
2018-04-02T08:56:08.005Z,79.20
2018-04-02T08:58:35.248Z,78.00
2018-04-02T09:01:01.807Z,78.00
2018-04-02T09:03:28.411Z,76.50
2018-04-02T09:05:54.869Z,77.30
2018-04-02T09:08:21.582Z,75.20
2018-04-02T09:10:48.227Z,74.80
2018-04-02T09:13:14.745Z,73.20
2018-04-02T09:15:42.021Z,74.40
2018-04-02T09:18:08.468Z,74.40
2018-04-02T09:20:35.706Z,70.20
2018-04-02T09:23:03.062Z,69.00
2018-04-02T09:25:29.571Z,68.70
2018-04-02T09:27:56.450Z,67.40
2018-04-02T09:30:22.938Z,65.50
2018-04-02T09:32:49.548Z,65.10
2018-04-02T09:35:16.260Z,65.60
2018-04-02T09:37:43.441Z,65.00
2018-04-02T09:40:09.973Z,64.60
2018-04-02T09:42:36.539Z,64.90
2018-04-02T09:45:03.051Z,64.60
2018-04-02T09:47:29.627Z,64.20
2018-04-02T09:49:56.203Z,63.60
2018-04-02T09:52:22.740Z,62.70
2018-04-02T09:54:49.573Z,62.70
2018-04-02T09:57:16.832Z,61.30
2018-04-02T09:59:44.137Z,61.40
2018-04-02T10:02:12.796Z,61.30
2018-04-02T10:04:42.300Z,60.90
2018-04-02T10:07:08.818Z,63.40
2018-04-02T10:09:35.838Z,65.00
2018-04-02T10:12:02.683Z,65.10
2018-04-02T10:14:29.308Z,66.30
2018-04-02T10:16:55.953Z,67.70
2018-04-02T10:19:22.739Z,69.80
2018-04-02T10:21:49.441Z,70.00
2018-04-02T10:24:16.026Z,69.80
2018-04-02T10:26:42.530Z,71.20
2018-04-02T10:29:09.670Z,70.70
2018-04-02T10:31:36.176Z,70.30
2018-04-02T10:34:02.613Z,70.70
2018-04-02T10:36:29.037Z,71.00
2018-04-02T10:38:55.445Z,72.00
2018-04-02T10:41:22.112Z,71.70
2018-04-02T10:43:49.017Z,71.90
2018-04-02T10:46:16.370Z,71.40
2018-04-02T10:48:42.821Z,71.30
2018-04-02T10:51:09.473Z,71.90
2018-04-02T10:53:35.982Z,72.70
2018-04-02T10:56:03.432Z,72.90
2018-04-02T10:58:30.825Z,73.80
2018-04-02T11:00:57.285Z,73.80
2018-04-02T11:03:23.809Z,74.30
2018-04-02T11:05:50.379Z,74.30
2018-04-02T11:08:16.904Z,75.20
2018-04-02T11:10:43.378Z,75.50
2018-04-02T11:13:10.922Z,74.10
2018-04-02T11:15:38.177Z,74.60
2018-04-02T11:18:07.844Z,74.00
2018-04-02T11:20:35.006Z,73.90
2018-04-02T11:23:01.472Z,74.10
2018-04-02T11:25:28.080Z,73.70
2018-04-02T11:27:55.518Z,73.40
2018-04-02T11:30:22.684Z,73.50
2018-04-02T11:32:49.334Z,74.10
2018-04-02T11:35:15.891Z,74.50
2018-04-02T11:37:42.410Z,73.10
2018-04-02T11:40:10.265Z,72.80
2018-04-02T11:42:36.833Z,72.70
2018-04-02T11:45:03.308Z,71.80
2018-04-02T11:47:30.009Z,71.20
2018-04-02T11:49:57.192Z,71.20
2018-04-02T11:52:23.651Z,71.20
2018-04-02T11:54:50.190Z,70.30
2018-04-02T11:57:16.678Z,70.50
2018-04-02T11:59:43.180Z,69.60
2018-04-02T12:02:09.753Z,69.30
2018-04-02T12:04:36.367Z,69.20
2018-04-02T12:07:03.530Z,67.80
2018-04-02T12:09:30.332Z,67.80
2018-04-02T12:11:56.832Z,67.70
2018-04-02T12:14:23.502Z,66.80
2018-04-02T12:16:50.949Z,65.40
2018-04-02T12:19:17.490Z,65.20
2018-04-02T12:21:44.105Z,64.50
2018-04-02T12:24:10.612Z,63.60
2018-04-02T12:26:37.156Z,63.70
2018-04-02T12:29:03.691Z,64.80
2018-04-02T12:31:30.235Z,64.60
2018-04-02T12:33:56.718Z,63.70
2018-04-02T12:36:36.449Z,62.40
2018-04-02T12:39:03.109Z,61.30
2018-04-02T12:41:29.572Z,59.60
2018-04-02T12:43:56.146Z,60.70
2018-04-02T12:46:22.689Z,58.80
2018-04-02T12:48:50.008Z,55.00
2018-04-02T12:51:16.512Z,55.00
2018-04-02T12:53:42.961Z,53.40
2018-04-02T12:56:09.402Z,53.60
2018-04-02T12:58:36.166Z,52.10
2018-04-02T13:01:03.404Z,50.80
2018-04-02T13:03:30.582Z,49.90
2018-04-02T13:05:57.161Z,49.90
2018-04-02T13:08:23.770Z,49.90
2018-04-02T13:10:50.409Z,48.60
2018-04-02T13:13:16.960Z,49.90
2018-04-02T13:15:43.485Z,51.00
2018-04-02T13:18:10.002Z,50.20
2018-04-02T13:20:36.504Z,50.00
2018-04-02T13:23:03.794Z,48.10
2018-04-02T13:25:30.297Z,48.10
2018-04-02T13:27:56.864Z,47.70
2018-04-02T13:30:23.506Z,46.00
2018-04-02T13:32:50.193Z,47.00
2018-04-02T13:35:16.755Z,48.20
2018-04-02T13:37:43.252Z,48.30
2018-04-02T13:40:10.576Z,47.20
2018-04-02T13:42:37.151Z,47.10
2018-04-02T13:45:03.745Z,47.20
2018-04-02T13:47:30.298Z,46.50
2018-04-02T13:49:56.835Z,47.20
2018-04-02T13:52:23.447Z,46.80
2018-04-02T13:54:49.866Z,46.20
2018-04-02T13:57:16.313Z,45.90
2018-04-02T13:59:42.898Z,45.00
2018-04-02T14:02:09.335Z,47.10
2018-04-02T14:04:35.767Z,48.00
2018-04-02T14:07:02.241Z,48.40
2018-04-02T14:09:28.709Z,48.00
2018-04-02T14:11:55.305Z,48.30
2018-04-02T14:14:21.913Z,47.70
2018-04-02T14:16:48.449Z,47.60
2018-04-02T14:19:15.848Z,47.30
2018-04-02T14:21:42.345Z,46.70
2018-04-02T14:24:08.972Z,46.20
2018-04-02T14:26:36.219Z,46.50
2018-04-02T14:29:03.483Z,46.30
2018-04-02T14:31:30.728Z,45.80
2018-04-02T14:33:57.299Z,45.80
2018-04-02T14:36:24.194Z,45.80
2018-04-02T14:38:50.751Z,45.80
2018-04-02T14:41:17.302Z,45.80
2018-04-02T14:43:43.724Z,46.30
2018-04-02T14:46:10.222Z,46.20
2018-04-02T14:48:36.876Z,46.20
2018-04-02T14:51:04.097Z,45.80
2018-04-02T14:53:30.546Z,45.70
2018-04-02T14:55:57.292Z,45.30
2018-04-02T14:58:23.739Z,45.70
2018-04-02T15:00:50.246Z,45.30
2018-04-02T15:03:17.721Z,45.80
2018-04-02T15:05:44.379Z,46.30
2018-04-02T15:08:10.804Z,45.70
2018-04-02T15:10:37.565Z,46.30
2018-04-02T15:13:04.114Z,46.00
2018-04-02T15:15:30.654Z,46.20
2018-04-02T15:17:57.942Z,45.40
2018-04-02T15:20:24.533Z,45.30
2018-04-02T15:22:51.785Z,44.50
2018-04-02T15:25:18.390Z,44.40
2018-04-02T15:27:47.009Z,44.00
2018-04-02T15:30:13.558Z,43.90
2018-04-02T15:32:40.072Z,43.70
2018-04-02T15:35:06.557Z,43.80
2018-04-02T15:37:33.115Z,43.20
2018-04-02T15:39:59.600Z,43.00
2018-04-02T15:42:26.059Z,42.20
2018-04-02T15:44:52.769Z,41.20
2018-04-02T15:47:20.020Z,41.20
2018-04-02T15:49:46.510Z,40.80
2018-04-02T15:52:13.335Z,39.80
2018-04-02T15:54:39.804Z,39.80
2018-04-02T15:57:06.322Z,39.50
2018-04-02T15:59:33.638Z,39.40
2018-04-02T16:02:00.137Z,39.30
2018-04-02T16:04:26.734Z,39.30
2018-04-02T16:06:53.195Z,39.40
2018-04-02T16:09:20.515Z,39.10
2018-04-02T16:11:47.192Z,40.20
2018-04-02T16:14:13.726Z,38.80
2018-04-02T16:16:40.917Z,38.90
2018-04-02T16:19:08.273Z,39.90
2018-04-02T16:21:34.796Z,39.80
2018-04-02T16:24:01.388Z,39.70
2018-04-02T16:26:27.914Z,39.00
2018-04-02T16:28:55.434Z,39.40
2018-04-02T16:31:22.587Z,38.80
2018-04-02T16:33:49.221Z,38.80
2018-04-02T16:36:15.701Z,39.10
2018-04-02T16:38:42.629Z,39.20
2018-04-02T16:41:09.086Z,39.70
2018-04-02T16:43:35.616Z,39.60
2018-04-02T16:46:02.174Z,39.80
2018-04-02T16:48:36.478Z,40.20
2018-04-02T16:51:04.173Z,40.20
2018-04-02T16:53:30.666Z,40.20
2018-04-02T16:55:57.164Z,40.10
2018-04-02T16:58:24.509Z,40.20
2018-04-02T17:00:51.107Z,40.10
2018-04-02T17:03:17.609Z,40.00
2018-04-02T17:05:44.777Z,40.20
2018-04-02T17:08:11.415Z,40.40
2018-04-02T17:10:37.847Z,40.70
2018-04-02T17:13:04.934Z,41.10
2018-04-02T17:15:32.237Z,41.60
2018-04-02T17:17:59.734Z,41.60
2018-04-02T17:20:26.232Z,42.00
2018-04-02T17:22:53.469Z,42.80
2018-04-02T17:25:19.949Z,42.80
2018-04-02T17:27:47.464Z,43.10
2018-04-02T17:30:14.021Z,43.60
2018-04-02T17:32:40.816Z,44.40
2018-04-02T17:35:07.335Z,44.20
2018-04-02T17:37:34.481Z,44.40
2018-04-02T17:40:00.983Z,44.70
2018-04-02T17:42:28.344Z,45.70
2018-04-02T17:44:55.106Z,45.00
2018-04-02T17:47:21.659Z,45.40
2018-04-02T17:49:48.243Z,46.00
2018-04-02T17:52:14.744Z,45.90
2018-04-02T17:54:41.396Z,46.50
2018-04-02T17:57:08.020Z,46.60
2018-04-02T17:59:34.580Z,47.10
2018-04-02T18:02:01.340Z,47.30
2018-04-02T18:04:28.547Z,47.80
2018-04-02T18:06:56.129Z,47.80
2018-04-02T18:09:24.726Z,48.10
2018-04-02T18:11:51.357Z,48.00
2018-04-02T18:14:17.850Z,48.40
2018-04-02T18:16:44.498Z,48.60
2018-04-02T18:19:11.227Z,48.40
2018-04-02T18:21:37.861Z,48.60
2018-04-02T18:24:04.512Z,48.50
2018-04-02T18:26:30.985Z,48.30
2018-04-02T18:28:57.472Z,48.50
2018-04-02T18:31:24.824Z,48.20
2018-04-02T18:33:51.363Z,48.20
2018-04-02T18:36:17.925Z,48.60
2018-04-02T18:38:44.625Z,48.60
2018-04-02T18:41:11.877Z,48.90
2018-04-02T18:43:39.421Z,48.90
2018-04-02T18:46:06.027Z,49.10
2018-04-02T18:48:33.328Z,49.10
2018-04-02T18:50:59.833Z,49.50
2018-04-02T18:53:26.338Z,49.10
2018-04-02T18:55:52.848Z,49.10
2018-04-02T18:58:20.527Z,48.70
2018-04-02T19:00:47.591Z,48.70
2018-04-02T19:03:15.229Z,48.70
2018-04-02T19:05:41.823Z,48.60
2018-04-02T19:08:08.601Z,48.80
2018-04-02T19:10:35.251Z,48.80
2018-04-02T19:13:02.320Z,49.00
2018-04-02T19:15:28.844Z,49.00
2018-04-02T19:17:55.693Z,49.10
2018-04-02T19:20:23.040Z,49.90
2018-04-02T19:22:49.441Z,49.70
2018-04-02T19:25:17.971Z,49.60
2018-04-02T19:27:44.607Z,49.70
2018-04-02T19:30:11.064Z,49.60
2018-04-02T19:32:37.628Z,49.60
2018-04-02T19:35:04.155Z,49.50
2018-04-02T19:37:30.694Z,49.90
2018-04-02T19:39:57.250Z,49.90
2018-04-02T19:42:23.703Z,49.90
2018-04-02T19:44:50.225Z,50.10
2018-04-02T19:47:16.718Z,50.20
2018-04-02T19:49:43.274Z,50.30
2018-04-02T19:52:09.795Z,50.90
2018-04-02T19:54:36.424Z,50.60
2018-04-02T19:57:02.951Z,50.90
2018-04-02T19:59:29.938Z,50.80
2018-04-02T20:01:56.490Z,51.10
2018-04-02T20:04:23.022Z,51.00
2018-04-02T20:06:49.549Z,51.20
2018-04-02T20:09:19.801Z,51.50
2018-04-02T20:11:49.848Z,51.90
2018-04-02T20:14:16.570Z,51.80
2018-04-02T20:16:43.061Z,52.20
2018-04-02T20:19:09.880Z,52.60
2018-04-02T20:21:36.665Z,52.40
2018-04-02T20:24:03.165Z,52.90
2018-04-02T20:26:29.691Z,52.90
2018-04-02T21:22:31.811Z,56.30
2018-04-02T21:24:58.357Z,56.40
2018-04-02T21:27:24.927Z,56.50
2018-04-02T21:29:51.495Z,56.70
2018-04-02T21:32:17.996Z,57.00
2018-04-02T21:34:44.680Z,57.40
2018-04-02T21:37:11.328Z,57.60
2018-04-02T21:39:37.843Z,58.00
2018-04-02T21:42:04.400Z,58.20
2018-04-02T21:44:32.567Z,58.70
2018-04-02T21:46:59.050Z,59.30
2018-04-02T21:49:25.559Z,58.80
2018-04-02T21:51:52.142Z,58.50
2018-04-02T21:54:18.711Z,58.50
2018-04-02T21:56:45.672Z,58.50
2018-04-02T21:59:12.159Z,58.70
2018-04-02T22:01:38.594Z,58.90
2018-04-02T22:04:05.057Z,59.10
2018-04-02T22:06:43.569Z,59.40
2018-04-02T22:09:10.135Z,59.70
2018-04-02T22:11:36.644Z,59.80
2018-04-02T22:14:03.164Z,59.70
2018-04-02T22:16:29.638Z,59.80
2018-04-02T22:18:56.844Z,60.30
2018-04-02T22:21:23.363Z,60.20
2018-04-02T22:23:50.110Z,60.50
2018-04-02T22:26:16.544Z,60.80
2018-04-02T22:28:43.052Z,61.10
2018-04-02T22:31:09.587Z,61.50
2018-04-02T22:33:36.049Z,61.90
2018-04-02T22:36:02.616Z,61.90
2018-04-02T22:38:29.154Z,62.00
2018-04-02T22:40:55.727Z,62.60
2018-04-02T22:43:23.214Z,62.70
2018-04-02T22:45:49.685Z,63.00
2018-04-02T22:48:16.959Z,63.90
2018-04-02T22:50:43.709Z,64.80
2018-04-02T22:53:10.146Z,64.10
2018-04-02T22:55:36.715Z,64.10
2018-04-02T22:58:03.701Z,64.40
2018-04-02T23:00:30.170Z,64.80
2018-04-02T23:02:56.605Z,65.00
2018-04-02T23:05:23.136Z,65.10
2018-04-02T23:07:49.643Z,65.10
2018-04-02T23:10:16.138Z,65.70
2018-04-02T23:12:42.852Z,65.70
2018-04-02T23:15:09.365Z,65.80
2018-04-02T23:17:36.647Z,66.20
2018-04-02T23:20:03.381Z,66.10
2018-04-02T23:22:41.994Z,66.00
2018-04-02T23:25:08.616Z,66.40
2018-04-02T23:27:35.992Z,67.00
2018-04-02T23:30:02.493Z,66.80
2018-04-02T23:32:29.328Z,67.00
2018-04-02T23:34:55.815Z,66.10
2018-04-02T23:37:22.342Z,66.40
2018-04-02T23:39:48.887Z,66.20
2018-04-02T23:42:15.320Z,66.40
2018-04-02T23:44:41.729Z,66.80
2018-04-02T23:47:08.927Z,67.00
2018-04-02T23:49:35.403Z,67.00
2018-04-02T23:52:01.989Z,67.10
2018-04-02T23:54:28.457Z,66.80
2018-04-02T23:56:54.921Z,67.30
2018-04-02T23:59:22.165Z,67.20
